createdAt,value
2022-10-17T00:01:06.569Z,0.80
2022-10-17T00:03:36.216Z,0.90
2022-10-17T00:06:13.187Z,1.13
2022-10-17T00:08:42.067Z,1.17
2022-10-17T00:11:15.756Z,0.98
2022-10-17T00:13:43.733Z,1.05
2022-10-17T00:16:12.064Z,1.23
2022-10-17T00:18:40.110Z,1.10
2022-10-17T00:21:15.047Z,1.20
2022-10-17T00:23:42.800Z,1.10
2022-10-17T00:26:11.108Z,1.13
2022-10-17T00:28:39.103Z,1.40
2022-10-17T00:31:08.416Z,1.30
2022-10-17T00:33:37.165Z,1.23
2022-10-17T00:36:12.879Z,1.20
2022-10-17T00:38:44.748Z,1.48
2022-10-17T00:41:15.854Z,1.25
2022-10-17T00:44:21.873Z,1.17
2022-10-17T00:46:49.895Z,1.00
2022-10-17T00:49:17.745Z,1.10
2022-10-17T00:51:53.540Z,1.25
2022-10-17T00:54:25.304Z,1.30
2022-10-17T00:56:53.161Z,1.35
2022-10-17T00:59:22.020Z,1.60
2022-10-17T01:02:00.616Z,1.55
2022-10-17T01:04:28.886Z,2.00
2022-10-17T01:06:57.289Z,1.98
2022-10-17T01:09:26.170Z,2.13
2022-10-17T01:12:25.193Z,1.50
2022-10-17T01:15:01.326Z,1.83
2022-10-17T01:17:44.705Z,1.50
2022-10-17T01:20:23.129Z,1.63
2022-10-17T01:23:19.214Z,1.73
2022-10-17T01:25:57.442Z,1.50
2022-10-17T01:28:28.597Z,1.60
2022-10-17T01:31:20.474Z,1.60
2022-10-17T01:34:03.923Z,1.30
2022-10-17T01:36:59.567Z,1.30
2022-10-17T01:39:53.542Z,1.48
2022-10-17T01:42:26.379Z,1.70
2022-10-17T01:45:05.898Z,1.50
2022-10-17T01:47:34.877Z,1.48
2022-10-17T01:50:24.414Z,1.60
2022-10-17T01:52:55.343Z,1.40
2022-10-17T01:55:31.679Z,1.75
2022-10-17T01:58:22.620Z,1.90
2022-10-17T02:00:50.957Z,1.77
2022-10-17T02:03:20.360Z,1.80
2022-10-17T02:05:48.284Z,1.95
2022-10-17T02:08:30.169Z,1.83
2022-10-17T02:11:10.155Z,1.38
2022-10-17T02:13:56.475Z,1.70
2022-10-17T02:16:39.595Z,1.65
2022-10-17T02:19:18.836Z,1.80
2022-10-17T02:22:12.560Z,1.92
2022-10-17T02:24:50.890Z,1.95
2022-10-17T02:27:37.672Z,1.73
2022-10-17T02:30:10.096Z,1.67
2022-10-17T02:35:22.277Z,1.60
2022-10-17T02:37:51.210Z,1.70
2022-10-17T02:40:21.756Z,1.75
2022-10-17T02:42:50.518Z,1.20
2022-10-17T02:45:18.531Z,1.80
2022-10-17T02:48:00.007Z,1.23
2022-10-17T02:53:19.296Z,1.60
2022-10-17T02:55:59.103Z,1.45
2022-10-17T02:58:31.371Z,1.35
2022-10-17T03:01:00.625Z,1.80
2022-10-17T03:03:31.617Z,1.45
2022-10-17T03:06:02.683Z,1.23
2022-10-17T03:08:30.587Z,1.90
2022-10-17T03:10:58.376Z,1.90
2022-10-17T03:13:28.893Z,2.10
2022-10-17T03:15:58.041Z,1.70
2022-10-17T03:18:25.940Z,1.92
2022-10-17T03:20:58.519Z,1.63
2022-10-17T03:23:26.282Z,2.10
2022-10-17T03:25:54.350Z,1.77
2022-10-17T03:28:22.360Z,1.60
2022-10-17T03:30:50.292Z,1.40
2022-10-17T03:33:18.146Z,1.90
2022-10-17T03:35:46.500Z,1.55
2022-10-17T03:38:14.380Z,1.80
2022-10-17T03:40:42.878Z,1.70
2022-10-17T03:43:12.217Z,1.60
2022-10-17T03:45:42.200Z,1.58
2022-10-17T03:48:10.053Z,1.40
2022-10-17T03:50:37.782Z,1.45
2022-10-17T03:53:06.278Z,1.42
2022-10-17T03:55:34.000Z,1.35
2022-10-17T03:58:02.732Z,1.70
2022-10-17T04:00:31.147Z,1.52
2022-10-17T04:03:00.080Z,1.80
2022-10-17T04:05:28.067Z,1.65
2022-10-17T04:07:59.803Z,1.25
2022-10-17T04:10:50.250Z,1.55
2022-10-17T04:13:18.334Z,1.35
2022-10-17T04:15:56.884Z,1.77
2022-10-17T04:18:25.276Z,1.50
2022-10-17T04:20:54.065Z,1.33
2022-10-17T04:23:23.111Z,1.65
2022-10-17T04:25:58.948Z,2.03
2022-10-17T04:28:28.701Z,1.63
2022-10-17T04:31:00.932Z,1.10
2022-10-17T04:33:34.856Z,1.35
2022-10-17T04:36:08.485Z,1.05
2022-10-17T04:38:36.875Z,1.50
2022-10-17T04:41:07.372Z,1.15
2022-10-17T04:43:37.175Z,1.70
2022-10-17T04:46:07.800Z,1.55
2022-10-17T04:48:37.124Z,1.33
2022-10-17T04:51:07.957Z,1.40
2022-10-17T04:53:46.142Z,1.92
2022-10-17T04:56:19.475Z,1.10
2022-10-17T04:58:48.145Z,1.25
2022-10-17T05:01:19.636Z,1.77
2022-10-17T05:03:52.862Z,1.73
2022-10-17T05:06:25.500Z,1.52
2022-10-17T05:09:12.198Z,1.42
2022-10-17T05:11:40.287Z,1.65
2022-10-17T05:14:08.089Z,1.30
2022-10-17T05:16:36.198Z,1.40
2022-10-17T05:19:04.432Z,1.48
2022-10-17T05:21:38.261Z,1.30
2022-10-17T05:24:08.395Z,1.60
2022-10-17T05:26:36.390Z,1.48
2022-10-17T05:29:05.642Z,1.35
2022-10-17T05:31:37.648Z,1.35
2022-10-17T05:34:09.121Z,1.80
2022-10-17T05:36:43.748Z,1.30
2022-10-17T05:39:15.059Z,1.52
2022-10-17T05:41:45.066Z,1.63
2022-10-17T05:44:13.662Z,1.20
2022-10-17T05:46:45.588Z,1.15
2022-10-17T05:49:19.680Z,1.40
2022-10-17T05:52:00.746Z,1.40
2022-10-17T05:54:32.103Z,1.42
2022-10-17T05:57:00.268Z,1.40
2022-10-17T05:59:31.678Z,1.23
2022-10-17T06:02:07.773Z,1.35
2022-10-17T06:04:38.759Z,1.30
2022-10-17T06:07:07.244Z,1.40
2022-10-17T06:09:36.139Z,1.42
2022-10-17T06:12:04.091Z,1.63
2022-10-17T06:14:32.698Z,1.58
2022-10-17T06:17:03.133Z,1.60
2022-10-17T06:19:30.979Z,1.25
2022-10-17T06:21:58.800Z,1.20
2022-10-17T06:24:28.694Z,1.45
2022-10-17T06:26:57.974Z,1.48
2022-10-17T06:29:45.809Z,1.75
2022-10-17T06:32:15.109Z,1.48
2022-10-17T06:34:46.951Z,1.88
2022-10-17T06:37:15.811Z,1.90
2022-10-17T06:39:44.576Z,1.40
2022-10-17T06:42:18.973Z,1.30
2022-10-17T06:44:57.593Z,1.50
2022-10-17T06:48:03.983Z,1.50
2022-10-17T06:53:25.309Z,1.40
2022-10-17T06:56:11.514Z,1.35
2022-10-17T06:59:05.694Z,1.83
2022-10-17T07:01:36.781Z,1.35
2022-10-17T07:04:05.653Z,1.35
2022-10-17T07:06:35.325Z,1.25
2022-10-17T07:09:10.778Z,1.48
2022-10-17T07:11:40.405Z,1.48
2022-10-17T07:14:08.463Z,1.20
2022-10-17T07:16:36.819Z,1.60
2022-10-17T07:19:14.387Z,1.38
2022-10-17T07:21:42.216Z,1.63
2022-10-17T07:24:12.200Z,1.38
2022-10-17T07:26:42.969Z,1.20
2022-10-17T07:29:11.676Z,1.77
2022-10-17T07:31:59.781Z,1.48
2022-10-17T07:34:31.083Z,1.73
2022-10-17T07:36:58.782Z,1.80
2022-10-17T07:39:26.677Z,1.95
2022-10-17T07:41:54.678Z,2.40
2022-10-17T07:44:24.034Z,2.53
2022-10-17T07:46:53.436Z,2.35
2022-10-17T07:49:21.168Z,2.30
2022-10-17T07:51:50.204Z,2.28
2022-10-17T07:54:18.169Z,1.90
2022-10-17T07:56:50.798Z,2.22
2022-10-17T07:59:19.630Z,2.88
2022-10-17T08:01:47.577Z,1.70
2022-10-17T08:04:16.977Z,2.15
2022-10-17T08:06:44.935Z,1.92
2022-10-17T08:09:13.031Z,2.00
2022-10-17T08:11:41.111Z,2.38
2022-10-17T08:14:08.905Z,2.25
2022-10-17T08:16:37.503Z,2.30
2022-10-17T08:19:05.866Z,1.85
2022-10-17T08:21:33.877Z,1.83
2022-10-17T08:24:03.385Z,2.05
2022-10-17T08:26:31.543Z,1.85
2022-10-17T08:28:59.704Z,2.08
2022-10-17T08:31:27.542Z,2.42
2022-10-17T08:33:55.407Z,1.63
2022-10-17T08:36:23.517Z,1.83
2022-10-17T08:38:52.939Z,1.63
2022-10-17T08:41:28.492Z,1.88
2022-10-17T08:44:34.565Z,1.85
2022-10-17T08:47:06.204Z,1.52
2022-10-17T08:49:53.052Z,1.58
2022-10-17T08:52:53.209Z,1.65
2022-10-17T08:55:24.231Z,3.30
2022-10-17T08:57:51.956Z,1.50
2022-10-17T09:00:22.093Z,1.52
2022-10-17T09:03:20.187Z,1.50
2022-10-17T09:05:52.619Z,1.95
2022-10-17T09:08:27.477Z,1.60
2022-10-17T09:11:04.740Z,1.80
2022-10-17T09:13:47.722Z,1.75
2022-10-17T09:16:15.520Z,1.70
2022-10-17T09:19:07.988Z,1.58
2022-10-17T09:21:38.777Z,1.50
2022-10-17T09:24:22.734Z,1.40
2022-10-17T09:26:52.149Z,1.52
2022-10-17T09:29:24.344Z,1.38
2022-10-17T09:32:00.666Z,1.55
2022-10-17T09:34:29.908Z,2.08
2022-10-17T09:37:00.279Z,1.90
2022-10-17T09:39:32.176Z,1.60
2022-10-17T09:42:02.105Z,1.83
2022-10-17T09:44:34.963Z,1.48
2022-10-17T09:47:41.566Z,1.92
2022-10-17T09:50:25.943Z,2.22
2022-10-17T09:52:54.871Z,1.48
2022-10-17T09:55:34.210Z,1.55
2022-10-17T09:58:04.184Z,1.88
2022-10-17T10:00:38.231Z,2.22
2022-10-17T10:03:22.669Z,1.95
2022-10-17T10:06:03.029Z,1.60
2022-10-17T10:08:34.422Z,1.98
2022-10-17T10:11:05.264Z,1.63
2022-10-17T10:13:34.953Z,1.65
2022-10-17T10:16:22.618Z,1.43
2022-10-17T10:18:51.691Z,1.58
2022-10-17T10:21:21.748Z,1.80
2022-10-17T10:24:10.655Z,2.00
2022-10-17T10:26:43.923Z,1.40
2022-10-17T10:29:34.302Z,1.52
2022-10-17T10:32:28.095Z,1.50
2022-10-17T10:35:07.024Z,1.70
2022-10-17T10:37:47.027Z,1.70
2022-10-17T10:40:20.935Z,1.60
2022-10-17T10:42:51.215Z,1.40
2022-10-17T10:45:46.970Z,1.30
2022-10-17T10:48:24.200Z,1.55
2022-10-17T10:51:13.320Z,1.50
2022-10-17T10:53:53.624Z,1.90
2022-10-17T10:56:24.706Z,1.48
2022-10-17T11:01:55.170Z,1.20
2022-10-17T11:04:38.098Z,1.73
2022-10-17T11:07:25.025Z,1.98
2022-10-17T11:10:26.564Z,1.52
2022-10-17T11:13:29.248Z,2.00
2022-10-17T11:16:25.864Z,1.20
2022-10-17T11:19:22.459Z,1.48
2022-10-17T11:22:09.829Z,1.60
2022-10-17T11:25:05.625Z,1.45
2022-10-17T11:27:35.660Z,1.60
2022-10-17T11:30:04.122Z,1.70
2022-10-17T11:32:49.922Z,1.67
2022-10-17T11:35:38.220Z,1.55
2022-10-17T11:38:27.062Z,1.60
2022-10-17T11:40:58.115Z,1.30
2022-10-17T11:43:27.696Z,1.65
2022-10-17T11:46:19.393Z,1.42
2022-10-17T11:48:56.316Z,1.70
2022-10-17T11:54:39.035Z,1.30
2022-10-17T11:57:28.835Z,1.60
2022-10-17T12:00:15.166Z,1.30
2022-10-17T12:03:01.045Z,1.48
2022-10-17T12:05:51.081Z,1.38
2022-10-17T12:08:38.012Z,1.20
2022-10-17T12:11:15.660Z,1.23
2022-10-17T12:13:52.092Z,1.08
2022-10-17T12:16:20.029Z,1.45
2022-10-17T12:18:49.843Z,1.42
2022-10-17T12:21:17.738Z,1.77
2022-10-17T12:23:55.364Z,1.15
2022-10-17T12:26:28.022Z,1.35
2022-10-17T12:28:57.133Z,1.30
2022-10-17T12:31:29.908Z,1.83
2022-10-17T12:34:05.188Z,1.35
2022-10-17T12:36:33.427Z,1.40
2022-10-17T12:39:04.230Z,1.08
2022-10-17T12:41:41.039Z,1.40
2022-10-17T12:44:15.192Z,1.30
2022-10-17T12:47:10.849Z,1.58
2022-10-17T12:49:46.797Z,1.35
2022-10-17T12:52:20.547Z,1.70
2022-10-17T12:55:14.677Z,1.23
2022-10-17T12:57:51.566Z,1.50
2022-10-17T13:00:49.860Z,1.10
2022-10-17T13:03:26.645Z,1.83
2022-10-17T13:05:58.198Z,1.50
2022-10-17T13:08:38.302Z,1.40
2022-10-17T13:11:06.570Z,1.20
2022-10-17T13:13:44.833Z,1.88
2022-10-17T13:16:32.161Z,1.33
2022-10-17T13:19:01.520Z,1.30
2022-10-17T13:21:29.973Z,1.33
2022-10-17T13:23:57.695Z,1.38
2022-10-17T13:26:27.926Z,1.10
2022-10-17T13:29:23.593Z,1.33
2022-10-17T13:31:57.071Z,1.30
2022-10-17T13:34:26.290Z,1.20
2022-10-17T13:36:56.009Z,1.13
2022-10-17T13:39:44.976Z,1.35
2022-10-17T13:42:31.660Z,1.10
2022-10-17T13:45:00.334Z,1.50
2022-10-17T13:47:35.730Z,1.15
2022-10-17T13:50:06.854Z,1.30
2022-10-17T13:52:40.558Z,1.15
2022-10-17T13:55:16.594Z,1.25
2022-10-17T13:57:45.166Z,1.20
2022-10-17T14:00:21.196Z,1.48
2022-10-17T14:02:49.148Z,1.48
2022-10-17T14:05:19.758Z,0.98
2022-10-17T14:08:22.058Z,1.88
2022-10-17T14:10:50.539Z,1.10
2022-10-17T14:13:30.527Z,1.10
2022-10-17T14:16:02.443Z,1.20
2022-10-17T14:18:36.210Z,1.40
2022-10-17T14:21:36.810Z,1.30
2022-10-17T14:24:25.133Z,1.30
2022-10-17T14:26:59.121Z,1.23
2022-10-17T14:29:31.000Z,1.38
2022-10-17T14:32:12.657Z,1.40
2022-10-17T14:34:41.480Z,1.38
2022-10-17T14:37:36.929Z,1.20
2022-10-17T14:40:07.124Z,1.42
2022-10-17T14:42:40.003Z,1.00
2022-10-17T14:45:11.966Z,1.40
2022-10-17T14:47:44.346Z,1.30
2022-10-17T14:50:12.345Z,1.13
2022-10-17T14:52:40.930Z,2.05
2022-10-17T14:55:39.030Z,1.13
2022-10-17T14:58:23.055Z,1.00
2022-10-17T15:00:50.903Z,1.35
2022-10-17T15:03:19.615Z,1.30
2022-10-17T15:05:48.737Z,1.27
2022-10-17T15:08:19.079Z,1.20
2022-10-17T15:10:48.327Z,1.30
2022-10-17T15:13:27.603Z,1.40
2022-10-17T15:15:55.745Z,1.30
2022-10-17T15:18:23.588Z,1.50
2022-10-17T15:20:59.527Z,1.13
2022-10-17T15:23:33.092Z,1.30
2022-10-17T15:26:01.251Z,1.25
2022-10-17T15:28:29.283Z,1.52
2022-10-17T15:30:57.198Z,1.23
2022-10-17T15:33:24.907Z,1.20
2022-10-17T15:35:53.222Z,1.13
2022-10-17T15:38:21.062Z,1.50
2022-10-17T15:40:51.177Z,1.20
2022-10-17T15:43:19.855Z,1.05
2022-10-17T15:45:48.431Z,1.30
2022-10-17T15:48:30.810Z,1.20
2022-10-17T15:50:58.794Z,2.13
2022-10-17T15:53:26.660Z,1.20
2022-10-17T15:55:54.406Z,1.00
2022-10-17T15:58:22.360Z,1.30
2022-10-17T16:00:50.318Z,1.30
2022-10-17T16:03:18.195Z,1.17
2022-10-17T16:05:46.040Z,1.55
2022-10-17T16:08:13.894Z,1.05
2022-10-17T16:10:41.940Z,1.17
2022-10-17T16:13:17.591Z,1.77
2022-10-17T16:15:45.654Z,1.23
2022-10-17T16:18:13.536Z,1.33
2022-10-17T16:20:41.666Z,1.92
2022-10-17T16:23:10.560Z,1.30
2022-10-17T16:25:40.121Z,1.35
2022-10-17T16:28:08.692Z,1.67
2022-10-17T16:30:42.721Z,1.20
2022-10-17T16:33:13.679Z,1.02
2022-10-17T16:38:09.132Z,1.00
2022-10-17T16:40:39.697Z,1.23
2022-10-17T16:43:09.648Z,1.10
2022-10-17T16:45:37.620Z,1.00
2022-10-17T16:48:05.934Z,1.30
2022-10-17T16:50:35.830Z,1.00
2022-10-17T16:53:04.228Z,1.30
2022-10-17T16:55:31.980Z,1.38
2022-10-17T16:58:00.414Z,1.40
2022-10-17T17:00:28.466Z,1.10
2022-10-17T17:02:56.335Z,1.20
2022-10-17T17:05:24.267Z,1.00
2022-10-17T17:07:52.481Z,1.40
2022-10-17T17:10:20.272Z,1.17
2022-10-17T17:12:48.119Z,1.20
2022-10-17T17:15:16.011Z,1.25
2022-10-17T17:17:50.436Z,1.20
2022-10-17T17:20:20.278Z,1.10
2022-10-17T17:22:48.817Z,1.50
2022-10-17T17:25:16.775Z,1.02
2022-10-17T17:27:44.658Z,1.02
2022-10-17T17:30:12.888Z,1.10
2022-10-17T17:32:41.014Z,1.25
2022-10-17T17:35:09.725Z,1.40
2022-10-17T17:37:37.609Z,1.27
2022-10-17T17:40:06.383Z,1.30
2022-10-17T17:42:34.261Z,1.00
2022-10-17T17:45:02.297Z,1.75
2022-10-17T17:47:30.600Z,1.20
2022-10-17T17:49:58.628Z,1.75
2022-10-17T17:52:26.499Z,1.45
2022-10-17T17:54:54.584Z,1.23
2022-10-17T17:57:22.588Z,1.38
2022-10-17T17:59:50.493Z,1.33
2022-10-17T18:02:18.727Z,1.17
2022-10-17T18:04:46.593Z,1.60
2022-10-17T18:07:14.332Z,1.45
2022-10-17T18:09:42.083Z,1.92
2022-10-17T18:12:09.949Z,1.58
2022-10-17T18:14:37.729Z,1.48
2022-10-17T18:17:05.483Z,1.25
2022-10-17T18:19:33.344Z,1.27
2022-10-17T18:22:01.245Z,1.58
2022-10-17T18:24:29.070Z,2.08
2022-10-17T18:27:00.042Z,1.48
2022-10-17T18:29:29.715Z,1.35
2022-10-17T18:31:57.725Z,1.83
2022-10-17T18:34:25.798Z,1.58
2022-10-17T18:36:54.316Z,1.10
2022-10-17T18:39:22.409Z,1.38
2022-10-17T18:41:50.271Z,1.60
2022-10-17T18:44:18.069Z,1.55
2022-10-17T18:49:20.020Z,1.45
2022-10-17T18:51:48.028Z,1.42
2022-10-17T18:54:21.478Z,1.58
2022-10-17T18:56:54.096Z,1.60
2022-10-17T18:59:22.280Z,1.20
2022-10-17T19:01:50.158Z,1.35
2022-10-17T19:04:18.091Z,1.75
2022-10-17T19:06:46.109Z,1.88
2022-10-17T19:09:15.176Z,1.05
2022-10-17T19:11:43.481Z,1.60
2022-10-17T19:14:15.622Z,2.00
2022-10-17T19:16:48.762Z,1.42
2022-10-17T19:19:23.638Z,1.30
2022-10-17T19:21:52.232Z,1.42
2022-10-17T19:24:23.121Z,1.60
2022-10-17T19:26:53.840Z,1.35
2022-10-17T19:29:24.091Z,1.65
2022-10-17T19:31:52.269Z,1.37
2022-10-17T19:34:20.179Z,1.25
2022-10-17T19:36:48.214Z,1.60
2022-10-17T19:39:19.420Z,1.40
2022-10-17T19:44:16.108Z,1.65
2022-10-17T19:46:49.435Z,1.63
2022-10-17T19:49:17.781Z,1.85
2022-10-17T19:51:45.854Z,1.35
2022-10-17T19:54:15.259Z,2.13
2022-10-17T19:56:43.678Z,2.15
2022-10-17T19:59:13.900Z,1.70
2022-10-17T20:01:42.116Z,1.63
2022-10-17T20:04:11.221Z,1.60
2022-10-17T20:06:39.758Z,2.00
2022-10-17T20:09:09.849Z,1.60
2022-10-17T20:11:40.316Z,2.22
2022-10-17T20:14:08.598Z,1.58
2022-10-17T20:16:37.543Z,1.98
2022-10-17T20:19:14.965Z,1.60
2022-10-17T20:21:43.689Z,1.50
2022-10-17T20:24:14.574Z,1.88
2022-10-17T20:26:42.897Z,1.88
2022-10-17T20:29:17.888Z,1.67
2022-10-17T20:31:46.898Z,1.98
2022-10-17T20:34:16.698Z,1.58
2022-10-17T20:36:45.014Z,1.80
2022-10-17T20:39:14.365Z,2.00
2022-10-17T20:41:43.125Z,2.08
2022-10-17T20:44:11.770Z,2.00
2022-10-17T20:46:45.356Z,2.15
2022-10-17T20:49:26.596Z,2.38
2022-10-17T20:51:54.673Z,1.95
2022-10-17T20:54:22.825Z,2.08
2022-10-17T20:56:51.027Z,2.05
2022-10-17T20:59:19.401Z,2.25
2022-10-17T21:01:47.686Z,2.08
2022-10-17T21:04:44.339Z,2.20
2022-10-17T21:07:03.439Z,1.85
2022-10-17T21:09:31.551Z,2.63
2022-10-17T21:14:36.512Z,1.75
2022-10-17T21:17:05.473Z,1.77
2022-10-17T21:19:33.780Z,1.88
2022-10-17T21:22:01.839Z,1.75
2022-10-17T21:24:29.754Z,2.20
2022-10-17T21:26:57.867Z,2.20
2022-10-17T21:29:25.963Z,2.25
2022-10-17T21:31:53.770Z,2.65
2022-10-17T21:34:26.629Z,2.88
2022-10-17T21:36:54.348Z,2.85
2022-10-17T21:39:24.906Z,2.60
2022-10-17T21:41:53.181Z,2.30
2022-10-17T21:44:24.310Z,2.65
2022-10-17T21:49:21.950Z,2.33
2022-10-17T21:51:50.773Z,2.70
2022-10-17T21:54:19.692Z,2.90
2022-10-17T21:56:47.906Z,2.85
2022-10-17T21:59:15.957Z,2.60
2022-10-17T22:01:45.446Z,2.58
2022-10-17T22:04:18.386Z,2.92
2022-10-17T22:06:48.111Z,2.72
2022-10-17T22:09:25.147Z,3.70
2022-10-17T22:11:55.338Z,2.95
2022-10-17T22:14:24.751Z,3.33
2022-10-17T22:16:52.718Z,2.78
2022-10-17T22:19:23.609Z,2.88
2022-10-17T22:21:51.975Z,3.03
2022-10-17T22:26:53.749Z,2.72
2022-10-17T22:29:21.637Z,3.40
2022-10-17T22:31:49.540Z,3.50
2022-10-17T22:34:18.534Z,3.33
2022-10-17T22:36:49.101Z,2.97
2022-10-17T22:39:17.113Z,2.97
2022-10-17T22:41:45.088Z,3.03
2022-10-17T22:44:13.100Z,3.33
2022-10-17T22:46:41.086Z,2.95
2022-10-17T22:49:08.814Z,3.40
2022-10-17T22:51:36.800Z,3.20
2022-10-17T22:54:04.797Z,3.67
2022-10-17T22:56:32.764Z,3.78
2022-10-17T22:59:00.864Z,3.40
2022-10-17T23:01:28.676Z,3.97
2022-10-17T23:03:56.743Z,4.13
2022-10-17T23:06:25.251Z,3.30
2022-10-17T23:08:53.290Z,3.88
2022-10-17T23:11:21.195Z,3.90
2022-10-17T23:13:49.133Z,3.75
2022-10-17T23:16:17.248Z,4.10
2022-10-17T23:18:45.093Z,3.92
2022-10-17T23:21:13.353Z,3.95
2022-10-17T23:23:41.202Z,3.47
2022-10-17T23:26:14.704Z,3.75
2022-10-17T23:28:43.218Z,3.78
2022-10-17T23:31:12.975Z,3.78
2022-10-17T23:33:41.646Z,3.78
2022-10-17T23:36:11.594Z,4.00
2022-10-17T23:38:40.863Z,3.97
2022-10-17T23:41:09.306Z,3.30
2022-10-17T23:43:37.677Z,3.30
2022-10-17T23:46:06.729Z,3.50
2022-10-17T23:48:34.544Z,2.92
2022-10-17T23:51:02.285Z,2.92
2022-10-17T23:53:30.150Z,3.08
2022-10-17T23:55:58.075Z,3.88
2022-10-17T23:58:26.207Z,2.90
